sensor_id;sensor_type;location;lat;lon;timestamp;P1;durP1;ratioP1;P2;durP2;ratioP2
38123;SDS011;23934;47.998;9.832;2022-10-04T00:01:42;24.85;;;6.22;;
38123;SDS011;23934;47.998;9.832;2022-10-04T00:04:14;21.80;;;5.88;;
38123;SDS011;23934;47.998;9.832;2022-10-04T00:06:46;19.63;;;6.22;;
38123;SDS011;23934;47.998;9.832;2022-10-04T00:09:15;22.50;;;5.97;;
38123;SDS011;23934;47.998;9.832;2022-10-04T00:11:44;18.48;;;5.78;;
38123;SDS011;23934;47.998;9.832;2022-10-04T00:14:18;21.10;;;5.18;;
38123;SDS011;23934;47.998;9.832;2022-10-04T00:16:45;19.75;;;6.13;;
38123;SDS011;23934;47.998;9.832;2022-10-04T00:22:14;18.38;;;6.07;;
38123;SDS011;23934;47.998;9.832;2022-10-04T00:24:35;16.92;;;6.28;;
38123;SDS011;23934;47.998;9.832;2022-10-04T00:29:37;21.08;;;5.90;;
38123;SDS011;23934;47.998;9.832;2022-10-04T00:34:46;25.00;;;5.57;;
38123;SDS011;23934;47.998;9.832;2022-10-04T00:37:12;12.55;;;4.97;;
38123;SDS011;23934;47.998;9.832;2022-10-04T00:39:42;24.08;;;6.45;;
38123;SDS011;23934;47.998;9.832;2022-10-04T00:44:58;25.30;;;7.00;;
38123;SDS011;23934;47.998;9.832;2022-10-04T00:47:33;15.98;;;5.68;;
38123;SDS011;23934;47.998;9.832;2022-10-04T00:50:04;27.45;;;5.95;;
38123;SDS011;23934;47.998;9.832;2022-10-04T00:52:33;19.92;;;6.05;;
38123;SDS011;23934;47.998;9.832;2022-10-04T00:55:01;17.85;;;5.65;;
38123;SDS011;23934;47.998;9.832;2022-10-04T00:57:31;26.90;;;5.60;;
38123;SDS011;23934;47.998;9.832;2022-10-04T01:00:02;21.15;;;5.72;;
38123;SDS011;23934;47.998;9.832;2022-10-04T01:02:34;19.27;;;5.82;;
38123;SDS011;23934;47.998;9.832;2022-10-04T01:05:03;20.88;;;5.18;;
38123;SDS011;23934;47.998;9.832;2022-10-04T01:07:38;17.05;;;5.18;;
38123;SDS011;23934;47.998;9.832;2022-10-04T01:15:15;17.70;;;5.35;;
38123;SDS011;23934;47.998;9.832;2022-10-04T01:20:31;21.45;;;5.90;;
38123;SDS011;23934;47.998;9.832;2022-10-04T01:22:57;41.60;;;5.70;;
38123;SDS011;23934;47.998;9.832;2022-10-04T01:25:42;17.67;;;5.70;;
38123;SDS011;23934;47.998;9.832;2022-10-04T01:28:08;13.23;;;4.50;;
38123;SDS011;23934;47.998;9.832;2022-10-04T01:30:34;11.30;;;4.68;;
38123;SDS011;23934;47.998;9.832;2022-10-04T01:33:00;14.88;;;5.28;;
38123;SDS011;23934;47.998;9.832;2022-10-04T01:35:27;21.88;;;4.45;;
38123;SDS011;23934;47.998;9.832;2022-10-04T01:37:53;21.05;;;4.65;;
38123;SDS011;23934;47.998;9.832;2022-10-04T01:40:19;12.57;;;4.80;;
38123;SDS011;23934;47.998;9.832;2022-10-04T01:42:49;14.32;;;5.30;;
38123;SDS011;23934;47.998;9.832;2022-10-04T01:45:22;17.48;;;5.32;;
38123;SDS011;23934;47.998;9.832;2022-10-04T01:47:52;19.60;;;5.93;;
38123;SDS011;23934;47.998;9.832;2022-10-04T01:50:23;12.77;;;4.60;;
38123;SDS011;23934;47.998;9.832;2022-10-04T01:55:36;21.55;;;4.95;;
38123;SDS011;23934;47.998;9.832;2022-10-04T01:58:19;9.82;;;4.18;;
38123;SDS011;23934;47.998;9.832;2022-10-04T02:00:50;11.43;;;4.45;;
38123;SDS011;23934;47.998;9.832;2022-10-04T02:03:25;25.10;;;5.22;;
38123;SDS011;23934;47.998;9.832;2022-10-04T02:05:55;21.10;;;5.22;;
38123;SDS011;23934;47.998;9.832;2022-10-04T02:08:25;13.13;;;5.28;;
38123;SDS011;23934;47.998;9.832;2022-10-04T02:10:52;19.52;;;4.65;;
38123;SDS011;23934;47.998;9.832;2022-10-04T02:13:18;15.90;;;4.78;;
38123;SDS011;23934;47.998;9.832;2022-10-04T02:15:45;24.85;;;4.15;;
38123;SDS011;23934;47.998;9.832;2022-10-04T02:18:13;23.52;;;5.28;;
38123;SDS011;23934;47.998;9.832;2022-10-04T02:20:39;25.90;;;5.22;;
38123;SDS011;23934;47.998;9.832;2022-10-04T02:23:07;13.60;;;4.72;;
38123;SDS011;23934;47.998;9.832;2022-10-04T02:25:34;12.93;;;4.15;;
38123;SDS011;23934;47.998;9.832;2022-10-04T02:28:00;19.05;;;5.18;;
38123;SDS011;23934;47.998;9.832;2022-10-04T02:30:27;13.77;;;4.38;;
38123;SDS011;23934;47.998;9.832;2022-10-04T02:32:55;12.80;;;4.85;;
38123;SDS011;23934;47.998;9.832;2022-10-04T02:35:21;22.80;;;4.65;;
38123;SDS011;23934;47.998;9.832;2022-10-04T02:37:49;21.50;;;6.10;;
38123;SDS011;23934;47.998;9.832;2022-10-04T02:40:17;12.88;;;4.88;;
38123;SDS011;23934;47.998;9.832;2022-10-04T02:45:23;18.38;;;5.93;;
38123;SDS011;23934;47.998;9.832;2022-10-04T02:48:01;16.83;;;5.43;;
38123;SDS011;23934;47.998;9.832;2022-10-04T02:53:29;17.75;;;5.80;;
38123;SDS011;23934;47.998;9.832;2022-10-04T02:55:47;17.95;;;4.43;;
38123;SDS011;23934;47.998;9.832;2022-10-04T02:58:14;20.60;;;5.05;;
38123;SDS011;23934;47.998;9.832;2022-10-04T03:00:46;36.72;;;5.30;;
38123;SDS011;23934;47.998;9.832;2022-10-04T03:03:29;14.35;;;5.40;;
38123;SDS011;23934;47.998;9.832;2022-10-04T03:08:29;18.45;;;4.80;;
38123;SDS011;23934;47.998;9.832;2022-10-04T03:10:56;19.55;;;4.68;;
38123;SDS011;23934;47.998;9.832;2022-10-04T03:13:23;13.93;;;4.10;;
38123;SDS011;23934;47.998;9.832;2022-10-04T03:15:49;17.38;;;5.75;;
38123;SDS011;23934;47.998;9.832;2022-10-04T03:18:15;9.55;;;4.38;;
38123;SDS011;23934;47.998;9.832;2022-10-04T03:20:42;18.10;;;5.25;;
38123;SDS011;23934;47.998;9.832;2022-10-04T03:23:08;14.40;;;5.38;;
38123;SDS011;23934;47.998;9.832;2022-10-04T03:26:25;14.52;;;5.40;;
38123;SDS011;23934;47.998;9.832;2022-10-04T03:28:23;22.23;;;5.30;;
38123;SDS011;23934;47.998;9.832;2022-10-04T03:30:49;20.73;;;6.70;;
38123;SDS011;23934;47.998;9.832;2022-10-04T03:33:16;17.42;;;6.47;;
38123;SDS011;23934;47.998;9.832;2022-10-04T03:35:43;16.55;;;6.13;;
38123;SDS011;23934;47.998;9.832;2022-10-04T03:38:11;34.22;;;6.57;;
38123;SDS011;23934;47.998;9.832;2022-10-04T03:40:37;25.15;;;6.78;;
38123;SDS011;23934;47.998;9.832;2022-10-04T03:43:07;35.65;;;6.28;;
38123;SDS011;23934;47.998;9.832;2022-10-04T03:45:36;20.70;;;5.55;;
38123;SDS011;23934;47.998;9.832;2022-10-04T03:48:04;20.88;;;7.47;;
38123;SDS011;23934;47.998;9.832;2022-10-04T03:50:33;23.00;;;6.35;;
38123;SDS011;23934;47.998;9.832;2022-10-04T03:53:02;16.45;;;6.85;;
38123;SDS011;23934;47.998;9.832;2022-10-04T03:55:31;22.15;;;6.97;;
38123;SDS011;23934;47.998;9.832;2022-10-04T03:57:58;27.02;;;5.90;;
38123;SDS011;23934;47.998;9.832;2022-10-04T04:00:24;17.27;;;5.43;;
38123;SDS011;23934;47.998;9.832;2022-10-04T04:02:55;13.75;;;4.90;;
38123;SDS011;23934;47.998;9.832;2022-10-04T04:05:24;20.38;;;6.80;;
38123;SDS011;23934;47.998;9.832;2022-10-04T04:10:26;17.55;;;4.95;;
38123;SDS011;23934;47.998;9.832;2022-10-04T04:13:15;15.65;;;6.70;;
38123;SDS011;23934;47.998;9.832;2022-10-04T04:15:43;18.27;;;5.72;;
38123;SDS011;23934;47.998;9.832;2022-10-04T04:18:14;20.25;;;5.53;;
38123;SDS011;23934;47.998;9.832;2022-10-04T04:20:41;17.52;;;6.57;;
38123;SDS011;23934;47.998;9.832;2022-10-04T04:25:47;20.58;;;5.38;;
38123;SDS011;23934;47.998;9.832;2022-10-04T04:30:46;15.00;;;5.75;;
38123;SDS011;23934;47.998;9.832;2022-10-04T04:33:17;15.32;;;5.53;;
38123;SDS011;23934;47.998;9.832;2022-10-04T04:35:46;34.10;;;5.88;;
38123;SDS011;23934;47.998;9.832;2022-10-04T04:38:16;13.55;;;5.70;;
38123;SDS011;23934;47.998;9.832;2022-10-04T04:40:44;21.00;;;5.45;;
38123;SDS011;23934;47.998;9.832;2022-10-04T04:43:12;18.58;;;5.13;;
38123;SDS011;23934;47.998;9.832;2022-10-04T04:45:39;19.00;;;6.93;;
38123;SDS011;23934;47.998;9.832;2022-10-04T04:48:05;15.27;;;5.07;;
38123;SDS011;23934;47.998;9.832;2022-10-04T04:50:35;25.10;;;5.40;;
38123;SDS011;23934;47.998;9.832;2022-10-04T04:53:04;18.55;;;6.53;;
38123;SDS011;23934;47.998;9.832;2022-10-04T04:55:32;25.33;;;7.13;;
38123;SDS011;23934;47.998;9.832;2022-10-04T04:57:59;20.52;;;6.15;;
38123;SDS011;23934;47.998;9.832;2022-10-04T05:00:28;22.42;;;6.40;;
38123;SDS011;23934;47.998;9.832;2022-10-04T05:02:56;14.00;;;6.15;;
38123;SDS011;23934;47.998;9.832;2022-10-04T05:05:26;17.25;;;5.20;;
38123;SDS011;23934;47.998;9.832;2022-10-04T05:08:10;19.45;;;6.97;;
38123;SDS011;23934;47.998;9.832;2022-10-04T05:10:39;15.55;;;6.35;;
38123;SDS011;23934;47.998;9.832;2022-10-04T05:13:07;16.30;;;5.53;;
38123;SDS011;23934;47.998;9.832;2022-10-04T05:15:34;16.33;;;6.78;;
38123;SDS011;23934;47.998;9.832;2022-10-04T05:18:01;20.60;;;5.75;;
38123;SDS011;23934;47.998;9.832;2022-10-04T05:20:28;16.42;;;5.40;;
38123;SDS011;23934;47.998;9.832;2022-10-04T05:22:55;33.90;;;6.95;;
38123;SDS011;23934;47.998;9.832;2022-10-04T05:25:27;18.92;;;6.63;;
38123;SDS011;23934;47.998;9.832;2022-10-04T05:27:54;13.65;;;5.85;;
38123;SDS011;23934;47.998;9.832;2022-10-04T05:32:59;16.65;;;6.72;;
38123;SDS011;23934;47.998;9.832;2022-10-04T05:35:26;28.35;;;6.80;;
38123;SDS011;23934;47.998;9.832;2022-10-04T05:38:04;32.65;;;7.28;;
38123;SDS011;23934;47.998;9.832;2022-10-04T05:40:37;19.42;;;7.15;;
38123;SDS011;23934;47.998;9.832;2022-10-04T05:43:27;22.30;;;6.28;;
38123;SDS011;23934;47.998;9.832;2022-10-04T05:48:35;17.58;;;6.47;;
38123;SDS011;23934;47.998;9.832;2022-10-04T05:51:02;24.40;;;7.70;;
38123;SDS011;23934;47.998;9.832;2022-10-04T05:53:37;26.05;;;7.30;;
38123;SDS011;23934;47.998;9.832;2022-10-04T06:14:44;28.52;;;8.15;;
38123;SDS011;23934;47.998;9.832;2022-10-04T06:20:02;19.73;;;6.25;;
38123;SDS011;23934;47.998;9.832;2022-10-04T06:22:30;23.00;;;8.27;;
38123;SDS011;23934;47.998;9.832;2022-10-04T06:25:06;26.33;;;7.97;;
38123;SDS011;23934;47.998;9.832;2022-10-04T06:27:40;33.88;;;8.68;;
38123;SDS011;23934;47.998;9.832;2022-10-04T06:30:15;33.42;;;8.43;;
38123;SDS011;23934;47.998;9.832;2022-10-04T06:32:45;36.35;;;10.00;;
38123;SDS011;23934;47.998;9.832;2022-10-04T06:38:05;36.55;;;9.75;;
38123;SDS011;23934;47.998;9.832;2022-10-04T06:40:58;32.40;;;9.40;;
38123;SDS011;23934;47.998;9.832;2022-10-04T06:43:37;27.98;;;7.72;;
38123;SDS011;23934;47.998;9.832;2022-10-04T06:46:09;35.53;;;8.38;;
38123;SDS011;23934;47.998;9.832;2022-10-04T06:48:59;43.13;;;10.50;;
38123;SDS011;23934;47.998;9.832;2022-10-04T06:51:36;40.83;;;10.88;;
38123;SDS011;23934;47.998;9.832;2022-10-04T07:01:49;60.53;;;12.38;;
38123;SDS011;23934;47.998;9.832;2022-10-04T07:09:51;58.85;;;11.40;;
38123;SDS011;23934;47.998;9.832;2022-10-04T07:12:18;68.22;;;13.75;;
38123;SDS011;23934;47.998;9.832;2022-10-04T07:14:49;69.68;;;13.48;;
38123;SDS011;23934;47.998;9.832;2022-10-04T07:17:18;71.78;;;14.35;;
38123;SDS011;23934;47.998;9.832;2022-10-04T07:19:50;62.03;;;13.40;;
38123;SDS011;23934;47.998;9.832;2022-10-04T07:30:34;65.22;;;16.15;;
38123;SDS011;23934;47.998;9.832;2022-10-04T07:33:01;63.35;;;14.57;;
38123;SDS011;23934;47.998;9.832;2022-10-04T07:35:35;74.97;;;15.93;;
38123;SDS011;23934;47.998;9.832;2022-10-04T07:38:15;76.38;;;13.63;;
38123;SDS011;23934;47.998;9.832;2022-10-04T07:43:31;70.65;;;14.02;;
38123;SDS011;23934;47.998;9.832;2022-10-04T07:48:56;63.30;;;14.45;;
38123;SDS011;23934;47.998;9.832;2022-10-04T07:53:52;66.40;;;14.50;;
38123;SDS011;23934;47.998;9.832;2022-10-04T07:56:25;73.05;;;15.63;;
38123;SDS011;23934;47.998;9.832;2022-10-04T08:09:26;88.70;;;19.27;;
38123;SDS011;23934;47.998;9.832;2022-10-04T08:27:45;78.13;;;17.13;;
38123;SDS011;23934;47.998;9.832;2022-10-04T08:30:39;75.43;;;17.75;;
38123;SDS011;23934;47.998;9.832;2022-10-04T08:33:11;69.63;;;16.60;;
38123;SDS011;23934;47.998;9.832;2022-10-04T08:54:59;25.13;;;10.32;;
38123;SDS011;23934;47.998;9.832;2022-10-04T09:02:56;15.70;;;7.28;;
38123;SDS011;23934;47.998;9.832;2022-10-04T09:16:18;8.70;;;4.80;;
38123;SDS011;23934;47.998;9.832;2022-10-04T09:18:50;9.40;;;5.10;;
38123;SDS011;23934;47.998;9.832;2022-10-04T09:21:27;12.18;;;4.88;;
38123;SDS011;23934;47.998;9.832;2022-10-04T09:24:11;13.18;;;4.22;;
38123;SDS011;23934;47.998;9.832;2022-10-04T09:26:43;14.32;;;4.85;;
38123;SDS011;23934;47.998;9.832;2022-10-04T09:29:19;11.77;;;5.00;;
38123;SDS011;23934;47.998;9.832;2022-10-04T09:58:09;14.18;;;5.45;;
38123;SDS011;23934;47.998;9.832;2022-10-04T10:00:58;10.32;;;4.60;;
38123;SDS011;23934;47.998;9.832;2022-10-04T10:16:31;16.02;;;6.78;;
38123;SDS011;23934;47.998;9.832;2022-10-04T10:35:32;7.65;;;4.90;;
38123;SDS011;23934;47.998;9.832;2022-10-04T11:25:50;9.43;;;5.28;;
38123;SDS011;23934;47.998;9.832;2022-10-04T11:27:45;8.95;;;4.82;;
38123;SDS011;23934;47.998;9.832;2022-10-04T11:35:42;10.25;;;4.65;;
38123;SDS011;23934;47.998;9.832;2022-10-04T11:51:57;8.48;;;4.13;;
38123;SDS011;23934;47.998;9.832;2022-10-04T11:57:11;5.35;;;3.25;;
38123;SDS011;23934;47.998;9.832;2022-10-04T12:05:26;9.93;;;4.05;;
38123;SDS011;23934;47.998;9.832;2022-10-04T12:15:25;8.23;;;3.33;;
38123;SDS011;23934;47.998;9.832;2022-10-04T12:18:03;7.22;;;4.05;;
38123;SDS011;23934;47.998;9.832;2022-10-04T12:29:09;8.68;;;3.55;;
38123;SDS011;23934;47.998;9.832;2022-10-04T12:33:56;6.55;;;3.92;;
38123;SDS011;23934;47.998;9.832;2022-10-04T12:39:00;4.78;;;3.10;;
38123;SDS011;23934;47.998;9.832;2022-10-04T12:41:44;7.75;;;3.95;;
38123;SDS011;23934;47.998;9.832;2022-10-04T12:49:44;5.53;;;3.60;;
38123;SDS011;23934;47.998;9.832;2022-10-04T12:52:15;5.53;;;3.17;;
38123;SDS011;23934;47.998;9.832;2022-10-04T12:54:50;5.28;;;3.38;;
38123;SDS011;23934;47.998;9.832;2022-10-04T13:02:47;5.13;;;3.30;;
38123;SDS011;23934;47.998;9.832;2022-10-04T13:10:41;14.30;;;4.00;;
38123;SDS011;23934;47.998;9.832;2022-10-04T13:13:34;8.63;;;4.20;;
38123;SDS011;23934;47.998;9.832;2022-10-04T13:16:13;6.85;;;3.60;;
38123;SDS011;23934;47.998;9.832;2022-10-04T13:24:21;5.70;;;3.35;;
38123;SDS011;23934;47.998;9.832;2022-10-04T13:29:28;7.38;;;3.50;;
38123;SDS011;23934;47.998;9.832;2022-10-04T13:32:10;7.75;;;3.40;;
38123;SDS011;23934;47.998;9.832;2022-10-04T13:34:43;5.72;;;3.50;;
38123;SDS011;23934;47.998;9.832;2022-10-04T13:39:49;5.97;;;3.67;;
38123;SDS011;23934;47.998;9.832;2022-10-04T13:50:22;5.85;;;3.50;;
38123;SDS011;23934;47.998;9.832;2022-10-04T13:53:03;8.25;;;3.55;;
38123;SDS011;23934;47.998;9.832;2022-10-04T13:55:56;5.25;;;2.92;;
38123;SDS011;23934;47.998;9.832;2022-10-04T13:58:47;5.45;;;3.55;;
38123;SDS011;23934;47.998;9.832;2022-10-04T14:14:30;9.50;;;3.58;;
38123;SDS011;23934;47.998;9.832;2022-10-04T14:28:11;4.72;;;2.90;;
38123;SDS011;23934;47.998;9.832;2022-10-04T14:30:19;5.65;;;2.80;;
38123;SDS011;23934;47.998;9.832;2022-10-04T14:32:56;5.53;;;3.20;;
38123;SDS011;23934;47.998;9.832;2022-10-04T14:50:46;6.20;;;3.22;;
38123;SDS011;23934;47.998;9.832;2022-10-04T15:03:30;7.07;;;3.20;;
38123;SDS011;23934;47.998;9.832;2022-10-04T15:06:11;8.93;;;3.90;;
38123;SDS011;23934;47.998;9.832;2022-10-04T15:08:46;5.68;;;3.80;;
38123;SDS011;23934;47.998;9.832;2022-10-04T15:11:18;7.05;;;4.07;;
38123;SDS011;23934;47.998;9.832;2022-10-04T15:13:56;7.95;;;3.53;;
38123;SDS011;23934;47.998;9.832;2022-10-04T15:16:32;6.18;;;3.63;;
38123;SDS011;23934;47.998;9.832;2022-10-04T15:26:52;8.15;;;3.83;;
38123;SDS011;23934;47.998;9.832;2022-10-04T15:42:29;5.97;;;2.67;;
38123;SDS011;23934;47.998;9.832;2022-10-04T15:53:03;3.67;;;2.13;;
38123;SDS011;23934;47.998;9.832;2022-10-04T15:58:14;4.03;;;2.13;;
38123;SDS011;23934;47.998;9.832;2022-10-04T16:05:40;7.25;;;2.25;;
38123;SDS011;23934;47.998;9.832;2022-10-04T16:13:42;6.85;;;2.67;;
38123;SDS011;23934;47.998;9.832;2022-10-04T16:21:27;10.32;;;2.40;;
38123;SDS011;23934;47.998;9.832;2022-10-04T16:31:53;3.75;;;1.75;;
38123;SDS011;23934;47.998;9.832;2022-10-04T16:42:26;2.47;;;1.65;;
38123;SDS011;23934;47.998;9.832;2022-10-04T16:44:55;2.88;;;2.00;;
38123;SDS011;23934;47.998;9.832;2022-10-04T16:47:26;2.40;;;1.53;;
38123;SDS011;23934;47.998;9.832;2022-10-04T16:49:54;5.75;;;1.50;;
38123;SDS011;23934;47.998;9.832;2022-10-04T16:55:32;3.95;;;2.03;;
38123;SDS011;23934;47.998;9.832;2022-10-04T17:00:46;12.13;;;3.72;;
38123;SDS011;23934;47.998;9.832;2022-10-04T17:03:15;7.10;;;2.78;;
38123;SDS011;23934;47.998;9.832;2022-10-04T17:08:23;21.88;;;7.88;;
38123;SDS011;23934;47.998;9.832;2022-10-04T17:11:08;47.00;;;17.85;;
38123;SDS011;23934;47.998;9.832;2022-10-04T17:16:13;30.83;;;12.02;;
38123;SDS011;23934;47.998;9.832;2022-10-04T17:21:31;24.70;;;9.15;;
38123;SDS011;23934;47.998;9.832;2022-10-04T17:29:15;10.85;;;4.47;;
38123;SDS011;23934;47.998;9.832;2022-10-04T17:32:02;10.43;;;4.28;;
38123;SDS011;23934;47.998;9.832;2022-10-04T17:37:25;14.25;;;4.40;;
38123;SDS011;23934;47.998;9.832;2022-10-04T17:53:26;15.93;;;6.57;;
38123;SDS011;23934;47.998;9.832;2022-10-04T17:56:11;32.90;;;9.40;;
38123;SDS011;23934;47.998;9.832;2022-10-04T18:01:29;25.10;;;9.88;;
38123;SDS011;23934;47.998;9.832;2022-10-04T18:06:36;28.05;;;12.02;;
38123;SDS011;23934;47.998;9.832;2022-10-04T18:09:17;27.60;;;11.65;;
38123;SDS011;23934;47.998;9.832;2022-10-04T18:11:45;33.25;;;10.15;;
38123;SDS011;23934;47.998;9.832;2022-10-04T18:14:19;20.35;;;9.43;;
38123;SDS011;23934;47.998;9.832;2022-10-04T18:16:55;24.30;;;7.65;;
38123;SDS011;23934;47.998;9.832;2022-10-04T18:24:35;19.90;;;7.55;;
38123;SDS011;23934;47.998;9.832;2022-10-04T18:27:02;27.40;;;8.13;;
38123;SDS011;23934;47.998;9.832;2022-10-04T18:29:43;18.38;;;8.07;;
38123;SDS011;23934;47.998;9.832;2022-10-04T18:32:29;21.70;;;8.80;;
38123;SDS011;23934;47.998;9.832;2022-10-04T18:35:00;17.55;;;7.05;;
38123;SDS011;23934;47.998;9.832;2022-10-04T18:37:33;32.63;;;6.97;;
38123;SDS011;23934;47.998;9.832;2022-10-04T18:40:19;19.33;;;6.35;;
38123;SDS011;23934;47.998;9.832;2022-10-04T18:42:52;23.98;;;6.97;;
38123;SDS011;23934;47.998;9.832;2022-10-04T18:45:22;17.08;;;6.18;;
38123;SDS011;23934;47.998;9.832;2022-10-04T18:47:49;10.73;;;5.13;;
38123;SDS011;23934;47.998;9.832;2022-10-04T18:50:37;19.08;;;7.00;;
38123;SDS011;23934;47.998;9.832;2022-10-04T19:01:21;15.80;;;6.78;;
38123;SDS011;23934;47.998;9.832;2022-10-04T19:04:25;17.10;;;7.00;;
38123;SDS011;23934;47.998;9.832;2022-10-04T19:06:55;33.60;;;10.63;;
38123;SDS011;23934;47.998;9.832;2022-10-04T19:09:28;59.97;;;19.35;;
38123;SDS011;23934;47.998;9.832;2022-10-04T19:19:31;18.70;;;7.97;;
38123;SDS011;23934;47.998;9.832;2022-10-04T19:22:03;24.90;;;10.10;;
38123;SDS011;23934;47.998;9.832;2022-10-04T19:27:02;24.92;;;8.85;;
38123;SDS011;23934;47.998;9.832;2022-10-04T19:31:59;25.80;;;8.60;;
38123;SDS011;23934;47.998;9.832;2022-10-04T19:36:59;26.13;;;9.32;;
38123;SDS011;23934;47.998;9.832;2022-10-04T19:39:35;26.63;;;10.27;;
38123;SDS011;23934;47.998;9.832;2022-10-04T19:51:59;24.92;;;8.45;;
38123;SDS011;23934;47.998;9.832;2022-10-04T19:54:29;24.17;;;8.85;;
38123;SDS011;23934;47.998;9.832;2022-10-04T19:56:58;18.60;;;7.33;;
38123;SDS011;23934;47.998;9.832;2022-10-04T19:59:36;15.30;;;6.68;;
38123;SDS011;23934;47.998;9.832;2022-10-04T20:02:10;22.00;;;7.03;;
38123;SDS011;23934;47.998;9.832;2022-10-04T20:04:37;20.77;;;6.57;;
38123;SDS011;23934;47.998;9.832;2022-10-04T20:07:04;17.52;;;6.75;;
38123;SDS011;23934;47.998;9.832;2022-10-04T20:12:01;23.15;;;9.32;;
38123;SDS011;23934;47.998;9.832;2022-10-04T20:21:51;33.85;;;12.18;;
38123;SDS011;23934;47.998;9.832;2022-10-04T20:27:06;23.45;;;10.00;;
38123;SDS011;23934;47.998;9.832;2022-10-04T20:32:05;18.63;;;7.65;;
38123;SDS011;23934;47.998;9.832;2022-10-04T20:34:33;18.33;;;7.47;;
38123;SDS011;23934;47.998;9.832;2022-10-04T20:36:59;18.98;;;7.03;;
38123;SDS011;23934;47.998;9.832;2022-10-04T20:49:52;18.92;;;8.50;;
38123;SDS011;23934;47.998;9.832;2022-10-04T20:52:23;28.50;;;8.00;;
38123;SDS011;23934;47.998;9.832;2022-10-04T20:54:51;25.63;;;8.95;;
38123;SDS011;23934;47.998;9.832;2022-10-04T20:57:18;18.08;;;7.15;;
38123;SDS011;23934;47.998;9.832;2022-10-04T20:59:47;27.63;;;8.15;;
38123;SDS011;23934;47.998;9.832;2022-10-04T21:02:16;22.30;;;7.40;;
38123;SDS011;23934;47.998;9.832;2022-10-04T21:04:42;15.43;;;6.95;;
38123;SDS011;23934;47.998;9.832;2022-10-04T21:07:15;22.08;;;6.80;;
38123;SDS011;23934;47.998;9.832;2022-10-04T21:09:41;20.52;;;7.78;;
38123;SDS011;23934;47.998;9.832;2022-10-04T21:17:37;19.80;;;7.72;;
38123;SDS011;23934;47.998;9.832;2022-10-04T21:20:04;16.08;;;7.13;;
38123;SDS011;23934;47.998;9.832;2022-10-04T21:22:31;18.85;;;7.15;;
38123;SDS011;23934;47.998;9.832;2022-10-04T21:24:58;11.82;;;5.57;;
38123;SDS011;23934;47.998;9.832;2022-10-04T21:29:57;15.82;;;6.78;;
38123;SDS011;23934;47.998;9.832;2022-10-04T21:32:23;17.65;;;6.82;;
38123;SDS011;23934;47.998;9.832;2022-10-04T21:34:49;16.52;;;7.00;;
38123;SDS011;23934;47.998;9.832;2022-10-04T21:37:16;23.90;;;7.13;;
38123;SDS011;23934;47.998;9.832;2022-10-04T21:39:42;17.05;;;7.50;;
38123;SDS011;23934;47.998;9.832;2022-10-04T21:42:08;24.63;;;7.50;;
38123;SDS011;23934;47.998;9.832;2022-10-04T21:44:34;23.98;;;8.05;;
38123;SDS011;23934;47.998;9.832;2022-10-04T21:47:00;19.30;;;7.75;;
38123;SDS011;23934;47.998;9.832;2022-10-04T21:49:26;16.60;;;6.50;;
38123;SDS011;23934;47.998;9.832;2022-10-04T21:51:52;17.05;;;7.65;;
38123;SDS011;23934;47.998;9.832;2022-10-04T21:54:18;16.90;;;7.15;;
38123;SDS011;23934;47.998;9.832;2022-10-04T21:56:44;18.70;;;7.18;;
38123;SDS011;23934;47.998;9.832;2022-10-04T21:59:10;16.60;;;7.63;;
38123;SDS011;23934;47.998;9.832;2022-10-04T22:01:36;21.38;;;7.78;;
38123;SDS011;23934;47.998;9.832;2022-10-04T22:04:02;27.17;;;8.23;;
38123;SDS011;23934;47.998;9.832;2022-10-04T22:06:28;22.70;;;8.45;;
38123;SDS011;23934;47.998;9.832;2022-10-04T22:08:54;24.70;;;8.52;;
38123;SDS011;23934;47.998;9.832;2022-10-04T22:11:20;25.55;;;8.48;;
38123;SDS011;23934;47.998;9.832;2022-10-04T22:13:46;29.55;;;9.35;;
38123;SDS011;23934;47.998;9.832;2022-10-04T22:16:12;25.63;;;8.85;;
38123;SDS011;23934;47.998;9.832;2022-10-04T22:18:38;26.08;;;8.25;;
38123;SDS011;23934;47.998;9.832;2022-10-04T22:21:04;25.83;;;8.32;;
38123;SDS011;23934;47.998;9.832;2022-10-04T22:23:36;20.08;;;7.88;;
38123;SDS011;23934;47.998;9.832;2022-10-04T22:26:07;28.83;;;9.40;;
38123;SDS011;23934;47.998;9.832;2022-10-04T22:28:34;30.42;;;8.18;;
38123;SDS011;23934;47.998;9.832;2022-10-04T22:31:08;26.30;;;8.15;;
38123;SDS011;23934;47.998;9.832;2022-10-04T22:33:36;19.98;;;8.07;;
38123;SDS011;23934;47.998;9.832;2022-10-04T22:41:19;28.92;;;9.68;;
38123;SDS011;23934;47.998;9.832;2022-10-04T22:43:45;20.25;;;7.50;;
38123;SDS011;23934;47.998;9.832;2022-10-04T22:46:12;20.65;;;8.43;;
38123;SDS011;23934;47.998;9.832;2022-10-04T22:48:40;19.27;;;6.55;;
38123;SDS011;23934;47.998;9.832;2022-10-04T22:51:08;15.93;;;7.22;;
38123;SDS011;23934;47.998;9.832;2022-10-04T22:53:34;18.73;;;6.95;;
38123;SDS011;23934;47.998;9.832;2022-10-04T22:56:00;20.77;;;7.65;;
38123;SDS011;23934;47.998;9.832;2022-10-04T22:58:26;21.05;;;7.45;;
38123;SDS011;23934;47.998;9.832;2022-10-04T23:00:52;23.30;;;8.20;;
38123;SDS011;23934;47.998;9.832;2022-10-04T23:05:48;20.67;;;7.80;;
38123;SDS011;23934;47.998;9.832;2022-10-04T23:08:14;19.30;;;7.10;;
38123;SDS011;23934;47.998;9.832;2022-10-04T23:10:42;22.85;;;8.00;;
38123;SDS011;23934;47.998;9.832;2022-10-04T23:13:07;20.42;;;7.95;;
38123;SDS011;23934;47.998;9.832;2022-10-04T23:15:33;25.20;;;8.50;;
38123;SDS011;23934;47.998;9.832;2022-10-04T23:17:59;21.10;;;8.40;;
38123;SDS011;23934;47.998;9.832;2022-10-04T23:20:26;24.25;;;8.65;;
38123;SDS011;23934;47.998;9.832;2022-10-04T23:22:52;19.80;;;8.27;;
38123;SDS011;23934;47.998;9.832;2022-10-04T23:25:25;21.02;;;7.57;;
38123;SDS011;23934;47.998;9.832;2022-10-04T23:27:51;17.73;;;7.60;;
38123;SDS011;23934;47.998;9.832;2022-10-04T23:30:18;24.65;;;8.68;;
38123;SDS011;23934;47.998;9.832;2022-10-04T23:32:45;26.17;;;8.38;;
38123;SDS011;23934;47.998;9.832;2022-10-04T23:35:17;25.48;;;8.70;;
38123;SDS011;23934;47.998;9.832;2022-10-04T23:37:44;21.02;;;8.00;;
38123;SDS011;23934;47.998;9.832;2022-10-04T23:40:11;19.25;;;8.32;;
38123;SDS011;23934;47.998;9.832;2022-10-04T23:42:37;26.55;;;8.05;;
38123;SDS011;23934;47.998;9.832;2022-10-04T23:45:09;24.17;;;8.98;;
38123;SDS011;23934;47.998;9.832;2022-10-04T23:47:36;29.10;;;8.93;;
38123;SDS011;23934;47.998;9.832;2022-10-04T23:50:06;25.05;;;8.95;;
38123;SDS011;23934;47.998;9.832;2022-10-04T23:52:42;25.80;;;8.88;;
38123;SDS011;23934;47.998;9.832;2022-10-04T23:55:25;22.83;;;8.73;;
38123;SDS011;23934;47.998;9.832;2022-10-04T23:57:52;22.70;;;9.13;;
